createdAt,value
2017-10-28T00:01:38.346Z,10.50
2017-10-28T00:04:06.677Z,10.46
2017-10-28T00:06:35.002Z,10.46
2017-10-28T00:09:03.335Z,10.40
2017-10-28T00:11:31.639Z,10.42
2017-10-28T00:13:59.959Z,10.44
2017-10-28T00:16:28.261Z,10.45
2017-10-28T00:18:56.586Z,10.43
2017-10-28T00:21:24.897Z,10.42
2017-10-28T00:23:53.994Z,10.43
2017-10-28T00:26:23.091Z,10.48
2017-10-28T00:28:52.171Z,10.43
2017-10-28T00:31:26.841Z,10.40
2017-10-28T00:36:56.114Z,10.33
2017-10-28T00:39:24.459Z,10.30
2017-10-28T00:41:52.838Z,10.26
2017-10-28T00:44:21.233Z,10.23
2017-10-28T00:46:49.543Z,10.23
2017-10-28T00:49:18.654Z,10.21
2017-10-28T00:51:47.762Z,10.21
2017-10-28T00:54:16.134Z,10.28
2017-10-28T00:56:44.519Z,10.30
2017-10-28T00:59:12.855Z,10.31
2017-10-28T01:01:41.211Z,10.33
2017-10-28T01:04:10.326Z,10.32
2017-10-28T01:06:38.683Z,10.22
2017-10-28T01:09:07.033Z,10.23
2017-10-28T01:11:35.422Z,10.24
2017-10-28T01:14:03.791Z,10.22
2017-10-28T01:16:32.108Z,10.21
2017-10-28T01:19:00.494Z,10.21
2017-10-28T01:21:28.864Z,10.16
2017-10-28T01:23:57.214Z,10.14
2017-10-28T01:26:25.570Z,10.11
2017-10-28T01:28:53.967Z,10.07
2017-10-28T01:31:22.340Z,10.01
2017-10-28T01:33:50.730Z,10.03
2017-10-28T01:36:19.041Z,10.02
2017-10-28T01:38:47.418Z,10.08
2017-10-28T01:41:15.778Z,10.09
2017-10-28T01:43:44.175Z,10.10
2017-10-28T01:46:12.510Z,10.10
2017-10-28T01:48:40.875Z,10.10
2017-10-28T01:51:09.183Z,10.13
2017-10-28T01:53:37.564Z,10.14
2017-10-28T01:56:05.873Z,10.16
2017-10-28T01:58:34.203Z,10.21
2017-10-28T02:01:02.519Z,10.28
2017-10-28T02:03:30.875Z,10.32
2017-10-28T02:05:59.184Z,10.35
2017-10-28T02:08:27.561Z,10.32
2017-10-28T02:10:55.886Z,10.35
2017-10-28T02:13:24.215Z,10.36
2017-10-28T02:15:52.517Z,10.35
2017-10-28T02:18:21.594Z,10.41
2017-10-28T02:20:49.900Z,10.38
2017-10-28T02:23:18.223Z,10.38
2017-10-28T02:25:47.301Z,10.40
2017-10-28T02:28:15.622Z,10.36
2017-10-28T02:30:43.935Z,10.33
2017-10-28T02:33:12.268Z,10.40
2017-10-28T02:35:40.580Z,10.32
2017-10-28T02:38:09.717Z,10.29
2017-10-28T02:40:38.071Z,10.33
2017-10-28T02:43:06.462Z,10.28
2017-10-28T02:45:34.771Z,10.25
2017-10-28T02:48:03.120Z,10.27
2017-10-28T02:50:31.464Z,10.18
2017-10-28T02:53:00.581Z,10.17
2017-10-28T02:55:28.959Z,10.22
2017-10-28T02:57:57.283Z,10.18
2017-10-28T03:00:25.634Z,10.14
2017-10-28T03:02:53.997Z,10.06
2017-10-28T03:05:22.344Z,10.01
2017-10-28T03:07:51.454Z,9.88
2017-10-28T03:10:19.803Z,9.74
2017-10-28T03:12:48.189Z,9.74
2017-10-28T03:15:16.506Z,9.63
2017-10-28T03:17:44.835Z,9.55
2017-10-28T03:20:13.165Z,9.53
2017-10-28T03:22:41.559Z,9.56
2017-10-28T03:25:09.899Z,9.55
2017-10-28T03:27:38.968Z,9.59
2017-10-28T03:30:07.311Z,9.63
2017-10-28T03:32:35.611Z,9.68
2017-10-28T03:35:03.977Z,9.76
2017-10-28T03:37:32.281Z,9.77
2017-10-28T03:40:01.387Z,9.76
2017-10-28T03:42:30.476Z,9.82
2017-10-28T03:44:59.606Z,9.85
2017-10-28T03:47:27.920Z,9.86
2017-10-28T03:49:56.234Z,9.89
2017-10-28T03:52:25.336Z,9.94
2017-10-28T03:54:54.413Z,9.96
2017-10-28T03:57:22.697Z,9.98
2017-10-28T03:59:51.769Z,9.99
2017-10-28T04:02:20.150Z,9.97
2017-10-28T04:04:48.526Z,9.97
2017-10-28T04:07:16.904Z,9.95
2017-10-28T04:09:45.212Z,9.94
2017-10-28T04:12:14.329Z,9.89
2017-10-28T04:14:42.633Z,9.84
2017-10-28T04:17:10.936Z,9.80
2017-10-28T04:19:39.237Z,9.76
2017-10-28T04:22:08.289Z,9.74
2017-10-28T04:24:36.613Z,9.75
2017-10-28T04:27:05.669Z,9.68
2017-10-28T04:29:33.965Z,9.62
2017-10-28T04:32:02.255Z,9.50
2017-10-28T04:34:30.873Z,9.46
2017-10-28T04:36:59.169Z,9.48
2017-10-28T04:39:28.233Z,9.44
2017-10-28T04:41:56.523Z,9.44
2017-10-28T04:44:24.833Z,9.43
2017-10-28T04:46:53.132Z,9.40
2017-10-28T04:49:21.432Z,9.42
2017-10-28T04:51:49.719Z,9.47
2017-10-28T04:54:18.017Z,9.52
2017-10-28T04:56:46.306Z,9.54
2017-10-28T04:59:14.604Z,9.57
2017-10-28T05:01:42.892Z,9.60
2017-10-28T05:04:11.964Z,9.64
2017-10-28T05:06:40.270Z,9.66
2017-10-28T05:09:09.337Z,9.69
2017-10-28T05:11:37.653Z,9.73
2017-10-28T05:14:05.949Z,9.76
2017-10-28T05:16:34.257Z,9.78
2017-10-28T05:19:02.552Z,9.73
2017-10-28T05:21:30.854Z,9.76
2017-10-28T05:23:59.923Z,9.76
2017-10-28T05:26:28.240Z,9.78
2017-10-28T05:28:56.536Z,9.83
2017-10-28T05:31:24.834Z,9.82
2017-10-28T05:33:53.113Z,9.83
2017-10-28T05:36:21.411Z,9.83
2017-10-28T05:38:49.748Z,9.85
2017-10-28T05:41:18.041Z,9.89
2017-10-28T05:43:46.338Z,9.86
2017-10-28T05:46:14.649Z,9.87
2017-10-28T05:48:43.705Z,9.89
2017-10-28T05:51:12.034Z,9.90
2017-10-28T05:53:40.338Z,9.90
2017-10-28T05:56:08.630Z,9.91
2017-10-28T05:58:36.910Z,9.92
2017-10-28T06:01:05.220Z,9.95
2017-10-28T06:03:34.278Z,9.92
2017-10-28T06:06:02.572Z,9.97
2017-10-28T06:08:30.856Z,10.00
2017-10-28T06:10:59.190Z,10.00
2017-10-28T06:13:27.487Z,10.00
2017-10-28T06:15:55.802Z,10.07
2017-10-28T06:18:24.866Z,10.16
2017-10-28T06:20:53.228Z,10.11
2017-10-28T06:23:21.521Z,10.12
2017-10-28T06:25:49.963Z,10.12
2017-10-28T06:28:18.260Z,10.15
2017-10-28T06:30:46.566Z,10.16
2017-10-28T06:33:14.865Z,10.23
2017-10-28T06:35:43.942Z,10.24
2017-10-28T06:38:12.236Z,10.17
2017-10-28T06:40:41.309Z,10.28
2017-10-28T06:43:09.599Z,10.38
2017-10-28T06:45:38.721Z,10.37
2017-10-28T06:48:07.769Z,10.52
2017-10-28T06:50:36.094Z,10.53
2017-10-28T06:53:04.397Z,10.47
2017-10-28T06:55:32.730Z,10.54
2017-10-28T06:58:01.795Z,10.56
2017-10-28T07:00:30.090Z,10.53
2017-10-28T07:02:58.389Z,10.51
2017-10-28T07:05:28.012Z,10.51
2017-10-28T07:07:56.320Z,10.50
2017-10-28T07:10:24.618Z,10.59
2017-10-28T07:12:52.925Z,10.67
2017-10-28T07:15:21.989Z,10.53
2017-10-28T07:17:50.295Z,10.75
2017-10-28T07:20:19.357Z,10.58
2017-10-28T07:22:47.671Z,10.59
2017-10-28T07:25:16.729Z,10.67
2017-10-28T07:27:45.037Z,10.67
2017-10-28T07:30:14.101Z,10.70
2017-10-28T07:32:42.414Z,10.59
2017-10-28T07:35:11.477Z,10.63
2017-10-28T07:37:39.792Z,10.57
2017-10-28T07:40:08.089Z,10.61
2017-10-28T07:42:36.395Z,10.75
2017-10-28T07:45:04.705Z,10.77
2017-10-28T07:47:33.778Z,10.75
2017-10-28T07:50:02.078Z,10.81
2017-10-28T07:52:31.161Z,10.81
2017-10-28T07:54:59.473Z,10.88
2017-10-28T07:57:27.781Z,10.92
2017-10-28T07:59:56.072Z,10.83
2017-10-28T08:02:24.389Z,10.97
2017-10-28T08:04:53.449Z,10.95
2017-10-28T08:07:21.756Z,11.00
2017-10-28T08:09:50.812Z,10.93
2017-10-28T08:12:19.124Z,11.00
2017-10-28T08:14:48.176Z,11.11
2017-10-28T08:17:16.472Z,11.15
2017-10-28T08:19:44.809Z,11.11
2017-10-28T08:22:13.117Z,11.12
2017-10-28T08:24:41.428Z,11.16
2017-10-28T08:27:10.490Z,11.27
2017-10-28T08:29:38.820Z,11.27
2017-10-28T08:32:07.129Z,11.06
2017-10-28T08:34:35.436Z,11.14
2017-10-28T08:37:03.747Z,11.25
2017-10-28T08:39:32.055Z,11.26
2017-10-28T08:42:00.358Z,11.11
2017-10-28T08:44:28.678Z,11.33
2017-10-28T08:46:56.985Z,11.35
2017-10-28T08:49:25.296Z,11.24
2017-10-28T08:51:53.613Z,11.29
2017-10-28T08:54:21.913Z,11.32
2017-10-28T08:56:50.211Z,11.33
2017-10-28T08:59:18.516Z,11.81
2017-10-28T09:01:46.814Z,11.86
2017-10-28T09:04:15.888Z,12.00
2017-10-28T09:06:44.186Z,11.93
2017-10-28T09:09:13.262Z,11.96
2017-10-28T09:11:41.578Z,11.94
2017-10-28T09:14:09.878Z,11.93
2017-10-28T09:16:38.950Z,11.85
2017-10-28T09:19:07.273Z,11.76
2017-10-28T09:21:35.580Z,11.77
2017-10-28T09:24:04.641Z,11.71
2017-10-28T09:26:32.953Z,11.72
2017-10-28T09:29:02.028Z,11.73
2017-10-28T09:31:30.338Z,11.89
2017-10-28T09:33:58.645Z,11.91
2017-10-28T09:36:26.949Z,11.74
2017-10-28T09:38:55.262Z,11.72
2017-10-28T09:41:24.338Z,11.81
2017-10-28T09:43:53.414Z,11.77
2017-10-28T09:46:21.733Z,11.88
2017-10-28T09:48:50.029Z,11.94
2017-10-28T09:51:18.342Z,11.86
2017-10-28T09:53:46.648Z,11.88
2017-10-28T09:56:15.721Z,11.87
2017-10-28T09:58:44.027Z,11.89
2017-10-28T10:01:13.109Z,12.06
2017-10-28T10:03:42.176Z,12.15
2017-10-28T10:06:10.490Z,12.03
2017-10-28T10:08:38.817Z,11.95
2017-10-28T10:11:07.126Z,12.25
2017-10-28T10:13:35.426Z,12.40
2017-10-28T10:16:04.504Z,12.38
2017-10-28T10:18:32.829Z,12.50
2017-10-28T10:21:01.145Z,12.47
2017-10-28T10:23:29.464Z,12.74
2017-10-28T10:25:57.765Z,12.77
2017-10-28T10:28:26.083Z,12.52
2017-10-28T10:30:54.405Z,12.51
2017-10-28T10:33:22.701Z,12.18
2017-10-28T10:35:51.010Z,12.25
2017-10-28T10:38:19.315Z,12.21
2017-10-28T10:40:48.401Z,12.28
2017-10-28T10:43:17.466Z,12.02
2017-10-28T10:45:45.773Z,11.98
2017-10-28T10:48:14.079Z,12.08
2017-10-28T10:50:42.385Z,12.16
2017-10-28T10:53:10.681Z,12.43
2017-10-28T10:55:38.993Z,12.13
2017-10-28T10:58:07.293Z,12.02
2017-10-28T11:00:35.608Z,12.07
2017-10-28T11:03:03.906Z,12.17
2017-10-28T11:05:32.217Z,12.17
2017-10-28T11:08:00.518Z,12.04
2017-10-28T11:10:28.836Z,12.21
2017-10-28T11:12:57.129Z,12.25
2017-10-28T11:15:26.202Z,12.16
2017-10-28T11:17:54.499Z,12.37
2017-10-28T11:20:23.637Z,12.40
2017-10-28T11:22:51.937Z,12.07
2017-10-28T11:25:21.082Z,12.10
2017-10-28T11:27:49.382Z,12.19
2017-10-28T11:30:17.685Z,12.10
2017-10-28T11:32:45.993Z,12.19
2017-10-28T11:35:14.293Z,12.15
2017-10-28T11:37:42.600Z,11.97
2017-10-28T11:40:10.894Z,11.87
2017-10-28T11:42:39.201Z,11.93
2017-10-28T11:45:07.508Z,11.91
2017-10-28T11:47:35.817Z,11.91
2017-10-28T11:50:04.123Z,11.92
2017-10-28T11:52:32.439Z,11.93
2017-10-28T11:55:00.782Z,11.87
2017-10-28T11:57:29.128Z,11.95
2017-10-28T11:59:57.476Z,12.01
2017-10-28T12:02:25.877Z,12.03
2017-10-28T12:04:54.265Z,12.03
2017-10-28T12:07:22.629Z,12.20
2017-10-28T12:09:50.978Z,12.00
2017-10-28T12:12:19.362Z,11.99
2017-10-28T12:14:47.730Z,12.01
2017-10-28T12:17:16.842Z,12.15
2017-10-28T12:19:45.150Z,12.19
2017-10-28T12:22:13.465Z,12.16
2017-10-28T12:24:42.618Z,12.03
2017-10-28T12:27:10.937Z,12.03
2017-10-28T12:29:39.240Z,12.01
2017-10-28T12:32:07.561Z,12.12
2017-10-28T12:34:35.915Z,12.11
2017-10-28T12:37:04.228Z,12.05
2017-10-28T12:39:32.534Z,12.17
2017-10-28T12:42:01.606Z,12.10
2017-10-28T12:44:30.006Z,12.04
2017-10-28T12:46:58.362Z,12.19
2017-10-28T12:49:26.697Z,12.23
2017-10-28T12:51:55.060Z,12.21
2017-10-28T12:54:23.380Z,12.18
2017-10-28T12:56:51.731Z,12.27
2017-10-28T12:59:20.126Z,12.20
2017-10-28T13:01:48.470Z,12.25
2017-10-28T13:04:16.836Z,12.18
2017-10-28T13:06:45.967Z,12.05
2017-10-28T13:09:14.286Z,12.02
2017-10-28T13:11:42.644Z,11.92
2017-10-28T13:14:10.982Z,12.01
2017-10-28T13:16:39.360Z,11.96
2017-10-28T13:19:07.697Z,12.08
2017-10-28T13:21:36.042Z,12.09
2017-10-28T13:24:04.426Z,12.16
2017-10-28T13:26:32.805Z,12.03
2017-10-28T13:29:01.184Z,12.10
2017-10-28T13:31:29.515Z,12.10
2017-10-28T13:33:58.584Z,12.02
2017-10-28T13:36:26.889Z,11.95
2017-10-28T13:38:55.986Z,12.04
2017-10-28T13:41:25.072Z,12.03
2017-10-28T13:43:54.390Z,12.03
2017-10-28T13:46:22.692Z,11.95
2017-10-28T13:48:51.041Z,12.01
2017-10-28T13:51:20.151Z,11.96
2017-10-28T13:53:48.513Z,11.94
2017-10-28T13:56:17.640Z,11.91
2017-10-28T13:58:45.949Z,11.97
2017-10-28T14:01:14.253Z,11.98
2017-10-28T14:03:43.389Z,11.98
2017-10-28T14:06:11.709Z,11.98
2017-10-28T14:08:40.034Z,12.01
2017-10-28T14:11:08.367Z,11.95
2017-10-28T14:13:36.687Z,11.95
2017-10-28T14:16:05.074Z,11.88
2017-10-28T14:18:34.666Z,11.94
2017-10-28T14:21:03.072Z,11.87
2017-10-28T14:23:31.449Z,11.98
2017-10-28T14:25:59.796Z,11.80
2017-10-28T14:28:28.156Z,11.75
2017-10-28T14:30:57.265Z,11.72
2017-10-28T14:33:25.616Z,11.74
2017-10-28T14:35:53.931Z,11.82
2017-10-28T14:38:22.251Z,11.77
2017-10-28T14:40:50.597Z,11.78
2017-10-28T14:43:18.913Z,11.69
2017-10-28T14:45:47.243Z,11.73
2017-10-28T14:48:15.569Z,11.78
2017-10-28T14:50:43.920Z,11.78
2017-10-28T14:53:12.279Z,11.74
2017-10-28T14:55:40.674Z,11.70
2017-10-28T14:58:09.019Z,11.67
2017-10-28T15:00:38.194Z,11.64
2017-10-28T15:03:06.569Z,11.62
2017-10-28T15:05:34.916Z,11.63
2017-10-28T15:08:03.274Z,11.51
2017-10-28T15:10:31.589Z,11.58
2017-10-28T15:12:59.926Z,11.53
2017-10-28T15:15:28.261Z,11.55
2017-10-28T15:17:56.621Z,11.55
2017-10-28T15:20:24.949Z,11.55
2017-10-28T15:22:54.038Z,11.56
2017-10-28T15:25:23.141Z,11.52
2017-10-28T15:27:51.484Z,11.54
2017-10-28T15:30:19.797Z,11.56
2017-10-28T15:32:48.135Z,11.54
2017-10-28T15:35:16.481Z,11.54
2017-10-28T15:37:44.793Z,11.51
2017-10-28T15:40:13.116Z,11.54
2017-10-28T15:42:41.438Z,11.51
2017-10-28T15:45:09.782Z,11.50
2017-10-28T15:47:38.080Z,11.44
2017-10-28T15:50:06.393Z,11.46
2017-10-28T15:52:34.700Z,11.48
2017-10-28T15:55:03.008Z,11.44
2017-10-28T15:57:31.362Z,11.45
2017-10-28T15:59:59.666Z,11.47
2017-10-28T16:02:28.038Z,11.40
2017-10-28T16:04:56.373Z,11.28
2017-10-28T16:07:25.488Z,11.19
2017-10-28T16:09:53.809Z,11.02
2017-10-28T16:12:22.127Z,10.96
2017-10-28T16:14:50.475Z,10.92
2017-10-28T16:17:18.893Z,10.86
2017-10-28T16:19:47.224Z,10.91
2017-10-28T16:22:15.548Z,10.89
2017-10-28T16:24:43.869Z,10.95
2017-10-28T16:27:12.186Z,10.99
2017-10-28T16:29:41.280Z,11.00
2017-10-28T16:32:10.385Z,11.07
2017-10-28T16:34:39.469Z,11.06
2017-10-28T16:37:08.566Z,11.10
2017-10-28T16:39:37.707Z,11.05
2017-10-28T16:42:06.080Z,11.03
2017-10-28T16:44:34.442Z,11.18
2017-10-28T16:47:02.809Z,11.05
2017-10-28T16:49:31.960Z,11.08
2017-10-28T16:52:00.316Z,11.06
2017-10-28T16:54:28.727Z,11.06
2017-10-28T16:56:57.117Z,11.06
2017-10-28T16:59:25.422Z,11.15
2017-10-28T17:01:53.772Z,11.15
2017-10-28T17:04:22.142Z,11.15
2017-10-28T17:06:50.493Z,11.24
2017-10-28T17:09:18.909Z,11.24
2017-10-28T17:11:48.003Z,11.25
2017-10-28T17:14:16.378Z,11.29
2017-10-28T17:16:44.701Z,11.27
2017-10-28T17:19:12.995Z,11.28
2017-10-28T17:21:41.362Z,11.29
2017-10-28T17:24:09.668Z,11.34
2017-10-28T17:26:38.015Z,11.38
2017-10-28T17:29:06.326Z,11.34
2017-10-28T17:31:34.645Z,11.35
2017-10-28T17:34:03.720Z,11.34
2017-10-28T17:36:32.035Z,11.40
2017-10-28T17:39:00.426Z,11.44
2017-10-28T17:41:28.768Z,11.42
2017-10-28T17:43:57.840Z,11.46
2017-10-28T17:46:26.205Z,11.49
2017-10-28T17:48:54.535Z,11.47
2017-10-28T17:51:22.865Z,11.49
2017-10-28T17:53:51.180Z,11.48
2017-10-28T17:56:20.376Z,11.46
2017-10-28T17:58:49.487Z,11.58
2017-10-28T18:01:17.832Z,11.62
2017-10-28T18:03:46.933Z,11.66
2017-10-28T18:06:15.235Z,11.70
2017-10-28T18:08:43.551Z,11.72
2017-10-28T18:11:11.872Z,11.62
2017-10-28T18:13:40.212Z,11.55
2017-10-28T18:16:08.536Z,11.51
2017-10-28T18:18:37.624Z,11.46
2017-10-28T18:21:06.787Z,11.42
2017-10-28T18:23:35.135Z,11.40
2017-10-28T18:26:03.444Z,11.36
2017-10-28T18:28:31.763Z,11.24
2017-10-28T18:31:00.848Z,11.18
2017-10-28T18:33:29.935Z,11.12
2017-10-28T18:35:58.269Z,11.11
2017-10-28T18:38:26.597Z,11.09
2017-10-28T18:40:55.720Z,11.05
2017-10-28T18:43:24.037Z,10.96
2017-10-28T18:45:52.353Z,10.90
2017-10-28T18:48:21.430Z,10.91
2017-10-28T18:50:49.826Z,10.86
2017-10-28T18:53:19.024Z,10.86
2017-10-28T18:55:48.334Z,10.83
2017-10-28T18:58:16.626Z,10.91
2017-10-28T19:00:44.921Z,10.98
2017-10-28T19:03:13.241Z,10.98
2017-10-28T19:05:41.573Z,11.02
2017-10-28T19:08:10.624Z,11.04
2017-10-28T19:10:38.950Z,11.06
2017-10-28T19:13:07.314Z,11.07
2017-10-28T19:15:35.616Z,11.09
2017-10-28T19:18:03.966Z,11.06
2017-10-28T19:20:32.316Z,11.02
2017-10-28T19:23:01.543Z,10.93
2017-10-28T19:25:29.852Z,10.98
2017-10-28T19:27:58.174Z,11.07
2017-10-28T19:30:26.505Z,11.11
2017-10-28T19:32:54.852Z,11.24
2017-10-28T19:35:23.196Z,11.25
2017-10-28T19:37:51.527Z,11.29
2017-10-28T19:40:19.887Z,11.33
2017-10-28T19:42:48.206Z,11.38
2017-10-28T19:45:17.314Z,11.48
2017-10-28T19:47:45.679Z,11.46
2017-10-28T19:50:14.018Z,11.47
2017-10-28T19:52:42.407Z,11.49
2017-10-28T19:55:10.771Z,11.51
2017-10-28T19:57:39.097Z,11.48
2017-10-28T20:00:07.434Z,11.49
2017-10-28T20:02:35.766Z,11.50
2017-10-28T20:05:04.126Z,11.52
2017-10-28T20:07:32.458Z,11.54
2017-10-28T20:10:00.785Z,11.50
2017-10-28T20:12:29.766Z,11.48
2017-10-28T20:14:58.101Z,11.53
2017-10-28T20:17:26.447Z,11.54
2017-10-28T20:19:54.770Z,11.55
2017-10-28T20:22:23.091Z,11.57
2017-10-28T20:24:51.487Z,11.60
2017-10-28T20:27:20.028Z,11.57
2017-10-28T20:29:48.369Z,11.61
2017-10-28T20:32:16.732Z,11.64
2017-10-28T20:34:45.840Z,11.69
2017-10-28T20:37:14.174Z,11.66
2017-10-28T20:39:42.534Z,11.72
2017-10-28T20:42:10.895Z,11.73
2017-10-28T20:44:39.253Z,11.76
2017-10-28T20:47:07.581Z,11.72
2017-10-28T20:49:35.904Z,11.74
2017-10-28T20:52:04.984Z,11.79
2017-10-28T20:54:33.303Z,11.79
2017-10-28T20:57:01.611Z,11.80
2017-10-28T20:59:29.931Z,11.80
2017-10-28T21:01:58.258Z,11.76
2017-10-28T21:04:26.603Z,11.76
2017-10-28T21:06:54.954Z,11.84
2017-10-28T21:09:24.043Z,11.86
2017-10-28T21:11:53.138Z,11.91
2017-10-28T21:14:21.460Z,11.99
2017-10-28T21:16:49.764Z,12.05
2017-10-28T21:19:18.070Z,12.00
2017-10-28T21:21:46.412Z,12.03
2017-10-28T21:24:14.758Z,12.07
2017-10-28T21:26:43.113Z,12.17
2017-10-28T21:29:11.415Z,12.20
2017-10-28T21:31:39.784Z,12.16
2017-10-28T21:34:08.095Z,12.18
2017-10-28T21:36:36.438Z,12.18
2017-10-28T21:39:04.738Z,12.20
2017-10-28T21:41:33.101Z,12.25
2017-10-28T21:44:01.398Z,12.16
2017-10-28T21:46:29.717Z,12.10
2017-10-28T21:48:58.014Z,12.09
2017-10-28T21:51:27.088Z,12.14
2017-10-28T21:53:55.402Z,12.13
2017-10-28T21:56:23.714Z,12.17
2017-10-28T21:58:52.024Z,12.17
2017-10-28T22:01:20.341Z,12.18
2017-10-28T22:03:48.653Z,12.17
2017-10-28T22:06:17.021Z,12.20
2017-10-28T22:08:45.336Z,12.19
2017-10-28T22:11:13.653Z,12.17
2017-10-28T22:13:41.950Z,12.17
2017-10-28T22:16:10.310Z,12.19
2017-10-28T22:18:38.650Z,12.28
2017-10-28T22:21:06.974Z,12.30
2017-10-28T22:23:35.300Z,12.38
2017-10-28T22:26:03.612Z,12.44
2017-10-28T22:28:31.922Z,12.49
2017-10-28T22:31:00.286Z,12.61
2017-10-28T22:33:28.594Z,12.58
2017-10-28T22:35:56.952Z,12.59
2017-10-28T22:38:25.287Z,12.55
2017-10-28T22:40:54.366Z,12.55
2017-10-28T22:43:22.760Z,12.53
2017-10-28T22:45:51.059Z,12.44
2017-10-28T22:48:19.410Z,12.44
2017-10-28T22:50:47.730Z,12.25
2017-10-28T22:53:16.078Z,12.17
2017-10-28T22:55:44.385Z,12.18
2017-10-28T22:58:12.711Z,12.27
2017-10-28T23:00:41.778Z,12.39
2017-10-28T23:03:10.118Z,12.48
2017-10-28T23:05:38.608Z,12.54
2017-10-28T23:08:06.975Z,12.56
2017-10-28T23:10:35.326Z,12.64
2017-10-28T23:13:03.656Z,12.78
2017-10-28T23:15:31.982Z,12.85
2017-10-28T23:18:00.337Z,12.88
2017-10-28T23:20:28.722Z,12.90
2017-10-28T23:22:57.101Z,12.89
2017-10-28T23:25:25.455Z,12.82
2017-10-28T23:27:53.820Z,12.79
2017-10-28T23:30:22.134Z,12.73
2017-10-28T23:32:50.590Z,12.68
2017-10-28T23:35:18.956Z,12.69
2017-10-28T23:37:47.289Z,12.63
2017-10-28T23:40:16.433Z,12.70
2017-10-28T23:42:44.767Z,12.74
2017-10-28T23:45:13.073Z,12.76
2017-10-28T23:47:41.467Z,12.80
2017-10-28T23:50:09.779Z,12.83
2017-10-28T23:52:38.181Z,12.81
2017-10-28T23:55:06.570Z,12.80
2017-10-28T23:57:34.987Z,12.76
